Time;durP1;ratioP1;P1;durP2;ratioP2;P2;SDS_P1;SDS_P2;PMS_P1;PMS_P2;Temp;Humidity;BMP_temperature;BMP_pressure;BME280_temperature;BME280_humidity;BME280_pressure;Samples;Min_cycle;Max_cycle;Signal;HPM_P1;HPM_P2
2023/06/15 00:00:19;;;;;;;0.40;0.40;;;23.20;71.40;;;;;;6243855;23;20171;-80
2023/06/15 00:02:49;;;;;;;1.08;0.70;;;23.20;71.60;;;;;;6218166;23;20541;-82
2023/06/15 00:05:18;;;;;;;0.68;0.43;;;23.20;71.60;;;;;;6215960;23;20158;-81
2023/06/15 00:07:47;;;;;;;0.40;0.40;;;23.20;71.70;;;;;;6244294;23;20170;-82
2023/06/15 00:10:16;;;;;;;2.60;0.75;;;23.20;71.70;;;;;;6243792;23;20572;-82
2023/06/15 00:12:45;;;;;;;0.43;0.43;;;23.10;71.80;;;;;;6242803;23;20173;-84
2023/06/15 00:15:13;;;;;;;1.17;0.68;;;23.10;71.80;;;;;;6242274;23;20186;-82
2023/06/15 00:17:43;;;;;;;0.63;0.50;;;23.10;71.90;;;;;;6242737;23;20194;-84
2023/06/15 00:20:13;;;;;;;0.30;0.30;;;23.10;72.00;;;;;;6243836;23;20177;-82
2023/06/15 00:22:45;;;;;;;0.55;0.40;;;23.10;71.90;;;;;;6243696;23;20250;-80
2023/06/15 00:25:14;;;;;;;0.50;0.50;;;23.10;72.00;;;;;;6243460;23;20198;-81
2023/06/15 00:27:43;;;;;;;0.95;0.88;;;23.00;72.00;;;;;;6244430;23;20174;-83
2023/06/15 00:30:12;;;;;;;0.40;0.40;;;23.00;72.10;;;;;;6242232;23;20170;-82
2023/06/15 00:32:41;;;;;;;1.45;1.02;;;23.00;72.20;;;;;;6244383;23;20470;-84
2023/06/15 00:35:10;;;;;;;1.15;1.05;;;23.00;72.30;;;;;;6242856;23;20540;-82
2023/06/15 00:37:40;;;;;;;0.60;0.60;;;22.90;72.40;;;;;;6244058;23;20173;-83
2023/06/15 00:40:09;;;;;;;0.73;0.68;;;22.90;72.60;;;;;;6242124;23;20171;-83
2023/06/15 00:42:38;;;;;;;0.30;0.30;;;22.90;72.90;;;;;;6241637;23;20245;-84
2023/06/15 00:45:08;;;;;;;0.45;0.43;;;22.80;72.80;;;;;;6243220;23;20505;-83
2023/06/15 00:47:41;;;;;;;1.10;1.00;;;22.80;73.00;;;;;;6243649;23;20167;-83
2023/06/15 00:50:14;;;;;;;0.93;0.70;;;22.80;73.20;;;;;;6243190;23;20204;-82
2023/06/15 00:52:46;;;;;;;1.67;1.58;;;22.70;73.20;;;;;;6243623;23;20165;-83
2023/06/15 00:55:15;;;;;;;0.50;0.40;;;22.70;73.20;;;;;;6240796;23;20217;-81
2023/06/15 00:57:49;;;;;;;0.88;0.85;;;22.70;73.20;;;;;;6243787;23;20703;-83
2023/06/15 01:00:19;;;;;;;0.77;0.50;;;22.70;73.30;;;;;;6241868;23;20212;-80
2023/06/15 01:02:50;;;;;;;0.90;0.68;;;22.70;73.50;;;;;;6244523;23;20158;-83
2023/06/15 01:05:20;;;;;;;0.93;0.80;;;22.60;73.50;;;;;;6242788;23;20166;-82
2023/06/15 01:07:52;;;;;;;8.88;0.63;;;22.60;73.70;;;;;;6244622;23;20178;-80
2023/06/15 01:10:24;;;;;;;0.77;0.77;;;22.60;74.70;;;;;;6216727;23;20201;-81
2023/06/15 01:12:54;;;;;;;0.60;0.60;;;22.60;74.20;;;;;;6244252;23;20186;-81
2023/06/15 01:15:23;;;;;;;0.30;0.30;;;22.50;74.50;;;;;;6217475;23;20995;-81
2023/06/15 01:17:55;;;;;;;0.70;0.60;;;22.50;74.50;;;;;;6243771;23;20175;-80
2023/06/15 01:20:32;;;;;;;0.90;0.77;;;22.50;74.50;;;;;;6243669;23;20154;-82
2023/06/15 01:23:18;;;;;;;1.50;0.40;;;22.40;74.50;;;;;;6243905;23;20618;-83
2023/06/15 01:26:11;;;;;;;0.40;0.40;;;22.40;74.70;;;;;;6243370;23;20159;-82
2023/06/15 01:28:45;;;;;;;1.30;1.05;;;22.40;75.00;;;;;;6244151;23;20166;-83
2023/06/15 01:31:14;;;;;;;0.80;0.63;;;22.30;75.20;;;;;;6242485;23;20599;-83
2023/06/15 01:33:47;;;;;;;1.10;0.63;;;22.30;75.90;;;;;;6243145;23;20170;-83
2023/06/15 01:36:16;;;;;;;1.02;0.90;;;22.30;75.80;;;;;;6242915;23;20167;-84
2023/06/15 01:38:46;;;;;;;1.23;0.55;;;22.20;75.60;;;;;;6242585;23;20209;-82
2023/06/15 01:41:19;;;;;;;0.55;0.55;;;22.20;76.10;;;;;;6242767;23;20257;-83
2023/06/15 01:43:48;;;;;;;3.70;1.15;;;22.20;76.00;;;;;;6243438;23;20544;-84
2023/06/15 01:46:18;;;;;;;1.20;0.68;;;22.20;76.10;;;;;;6215972;23;20659;-84
2023/06/15 01:48:46;;;;;;;1.02;0.93;;;22.20;76.20;;;;;;6243367;23;20628;-84
2023/06/15 01:51:16;;;;;;;1.25;0.75;;;22.20;76.10;;;;;;6242665;23;20178;-83
2023/06/15 01:53:46;;;;;;;0.60;0.60;;;22.10;76.10;;;;;;6243201;23;20197;-83
2023/06/15 01:56:16;;;;;;;0.45;0.45;;;22.10;76.10;;;;;;6216243;23;20177;-84
2023/06/15 01:58:45;;;;;;;1.50;0.73;;;22.10;76.10;;;;;;6243373;23;20265;-83
2023/06/15 02:01:13;;;;;;;3.97;1.33;;;22.10;76.20;;;;;;6241371;23;20170;-83
2023/06/15 02:03:42;;;;;;;1.35;1.25;;;22.10;77.30;;;;;;6243357;23;20167;-82
2023/06/15 02:06:10;;;;;;;6.63;0.98;;;22.10;77.20;;;;;;6242501;23;20177;-83
2023/06/15 02:08:39;;;;;;;0.95;0.57;;;22.00;77.10;;;;;;6243407;23;20674;-83
2023/06/15 02:11:07;;;;;;;3.92;1.92;;;22.00;77.30;;;;;;6243144;23;20166;-84
2023/06/15 02:13:37;;;;;;;7.03;2.42;;;22.00;77.40;;;;;;6242330;23;20651;-83
2023/06/15 02:16:07;;;;;;;2.63;1.55;;;22.00;77.40;;;;;;6242719;23;20519;-84
2023/06/15 02:18:37;;;;;;;1.38;1.23;;;22.00;77.40;;;;;;6244844;23;20171;-82
2023/06/15 02:21:06;;;;;;;2.00;1.17;;;22.00;77.40;;;;;;6244078;23;20158;-83
2023/06/15 02:23:34;;;;;;;1.77;1.15;;;22.00;77.70;;;;;;6245152;23;20197;-82
2023/06/15 02:26:03;;;;;;;0.70;0.70;;;21.90;78.00;;;;;;6244329;23;20178;-83
2023/06/15 02:28:32;;;;;;;1.25;0.60;;;21.90;78.50;;;;;;6245732;23;20193;-82
2023/06/15 02:31:01;;;;;;;1.50;1.40;;;21.90;78.60;;;;;;6243703;23;20590;-84
2023/06/15 02:33:31;;;;;;;1.00;0.85;;;21.90;78.70;;;;;;6245326;23;20170;-83
2023/06/15 02:35:59;;;;;;;0.77;0.77;;;21.80;78.90;;;;;;6217920;23;20178;-84
2023/06/15 02:38:28;;;;;;;0.47;0.47;;;21.80;79.10;;;;;;6245137;23;20245;-84
2023/06/15 02:40:56;;;;;;;1.15;0.70;;;21.80;79.20;;;;;;6243922;23;20191;-84
2023/06/15 02:43:24;;;;;;;0.55;0.55;;;21.80;79.10;;;;;;6244322;23;20167;-84
2023/06/15 02:45:53;;;;;;;2.08;1.15;;;21.70;78.90;;;;;;6244148;23;20550;-83
2023/06/15 02:48:23;;;;;;;0.52;0.52;;;21.80;79.00;;;;;;6244171;23;20171;-84
2023/06/15 02:50:52;;;;;;;1.95;1.00;;;21.80;79.00;;;;;;6218217;23;20174;-83
2023/06/15 02:53:20;;;;;;;0.52;0.52;;;21.70;78.90;;;;;;6217762;23;20190;-83
2023/06/15 02:55:51;;;;;;;0.60;0.60;;;21.70;78.90;;;;;;6217482;23;20178;-84
2023/06/15 02:58:20;;;;;;;0.52;0.52;;;21.70;79.00;;;;;;6245147;23;20550;-84
2023/06/15 03:00:50;;;;;;;1.42;0.80;;;21.70;79.00;;;;;;6243567;23;20221;-84
2023/06/15 03:03:22;;;;;;;1.13;0.80;;;21.70;79.10;;;;;;6244064;23;20159;-84
2023/06/15 03:05:52;;;;;;;1.02;0.93;;;21.70;79.10;;;;;;6244858;23;20155;-85
2023/06/15 03:08:23;;;;;;;1.23;0.90;;;21.70;79.40;;;;;;6245227;23;20273;-84
2023/06/15 03:10:52;;;;;;;1.05;1.00;;;21.70;79.70;;;;;;6244038;23;20155;-83
2023/06/15 03:13:21;;;;;;;1.48;0.82;;;21.70;79.70;;;;;;6244687;23;20170;-83
2023/06/15 03:15:50;;;;;;;1.98;1.02;;;21.70;80.20;;;;;;6244018;23;20534;-84
2023/06/15 03:18:19;;;;;;;0.65;0.57;;;21.70;80.70;;;;;;6216484;23;20167;-84
2023/06/15 03:20:52;;;;;;;2.28;1.40;;;21.70;80.60;;;;;;6243784;23;20511;-84
2023/06/15 03:23:22;;;;;;;2.15;1.10;;;21.70;80.60;;;;;;6244800;23;20162;-83
2023/06/15 03:25:51;;;;;;;0.38;0.38;;;21.70;80.40;;;;;;6243724;23;20492;-83
2023/06/15 03:28:23;;;;;;;1.10;0.88;;;21.70;80.50;;;;;;6244636;23;20173;-84
2023/06/15 03:30:53;;;;;;;1.02;0.88;;;21.70;80.30;;;;;;6243305;23;20163;-84
2023/06/15 03:33:22;;;;;;;0.98;0.88;;;21.70;80.80;;;;;;6244878;23;20241;-84
2023/06/15 03:35:53;;;;;;;0.47;0.45;;;21.70;81.10;;;;;;6243912;23;20170;-84
2023/06/15 03:38:23;;;;;;;1.00;1.00;;;21.70;80.90;;;;;;6217920;23;20612;-83
2023/06/15 03:40:51;;;;;;;0.75;0.75;;;21.70;81.30;;;;;;6243834;23;20186;-84
2023/06/15 03:43:20;;;;;;;1.30;1.20;;;21.70;81.50;;;;;;6243332;23;20178;-83
2023/06/15 03:45:48;;;;;;;1.90;1.20;;;21.70;81.50;;;;;;6244274;23;20178;-84
2023/06/15 03:48:17;;;;;;;0.68;0.55;;;21.70;81.50;;;;;;6217804;23;20245;-82
2023/06/15 03:50:46;;;;;;;0.35;0.35;;;21.70;81.30;;;;;;6243575;23;20174;-84
2023/06/15 03:53:15;;;;;;;0.50;0.50;;;21.70;81.60;;;;;;6244355;23;20646;-84
2023/06/15 03:55:45;;;;;;;1.17;1.05;;;21.70;81.40;;;;;;6243017;23;20167;-84
2023/06/15 03:58:14;;;;;;;1.58;1.40;;;21.80;81.50;;;;;;6244016;23;20518;-83
2023/06/15 04:00:43;;;;;;;0.60;0.60;;;21.80;81.90;;;;;;6215508;23;20202;-84
2023/06/15 04:03:12;;;;;;;1.30;1.20;;;21.80;82.20;;;;;;6243482;23;20163;-83
2023/06/15 04:05:42;;;;;;;2.08;1.25;;;21.80;81.90;;;;;;6243999;23;20253;-84
2023/06/15 04:08:10;;;;;;;0.93;0.73;;;21.90;82.10;;;;;;6244663;23;20179;-84
2023/06/15 04:10:39;;;;;;;2.35;1.50;;;21.90;81.80;;;;;;6243420;23;20173;-83
2023/06/15 04:13:08;;;;;;;1.20;1.05;;;21.90;81.80;;;;;;6243027;23;20507;-83
2023/06/15 04:15:37;;;;;;;1.00;0.95;;;22.00;81.90;;;;;;6242903;23;20178;-83
2023/06/15 04:18:05;;;;;;;1.30;0.75;;;22.00;82.40;;;;;;6243627;23;20181;-84
2023/06/15 04:20:33;;;;;;;1.52;1.23;;;22.00;82.40;;;;;;6242566;23;20269;-83
2023/06/15 04:23:02;;;;;;;3.72;1.17;;;22.10;83.30;;;;;;6243761;23;20170;-82
2023/06/15 04:25:30;;;;;;;3.72;0.77;;;22.10;82.40;;;;;;6243132;23;20659;-82
2023/06/15 04:27:59;;;;;;;1.50;1.15;;;22.20;82.40;;;;;;6244884;23;20174;-83
2023/06/15 04:30:31;;;;;;;1.73;1.50;;;22.20;82.20;;;;;;6242795;23;20217;-82
2023/06/15 04:32:59;;;;;;;1.65;1.23;;;22.30;82.20;;;;;;6244507;23;20167;-84
2023/06/15 04:35:31;;;;;;;1.70;1.45;;;22.30;82.10;;;;;;6242857;23;20193;-82
2023/06/15 04:38:00;;;;;;;6.05;1.48;;;22.40;82.00;;;;;;6243631;23;20170;-83
2023/06/15 04:40:28;;;;;;;1.38;1.02;;;22.50;82.00;;;;;;6243410;23;20664;-83
2023/06/15 04:42:58;;;;;;;2.42;1.70;;;22.50;81.80;;;;;;6242993;23;20173;-83
2023/06/15 04:45:26;;;;;;;1.48;1.27;;;22.60;81.60;;;;;;6243654;23;20179;-83
2023/06/15 04:47:56;;;;;;;3.85;1.17;;;22.60;81.50;;;;;;6244698;23;20181;-84
2023/06/15 04:50:25;;;;;;;5.13;1.80;;;22.70;81.40;;;;;;6241762;23;20518;-83
2023/06/15 04:52:54;;;;;;;2.85;1.00;;;22.70;81.30;;;;;;6218415;23;20543;-83
2023/06/15 04:55:22;;;;;;;1.30;1.02;;;22.80;81.00;;;;;;6242702;23;20170;-82
2023/06/15 04:57:51;;;;;;;4.35;1.75;;;22.90;80.80;;;;;;6244123;23;20193;-83
2023/06/15 05:00:20;;;;;;;2.20;0.98;;;23.00;80.70;;;;;;6242910;23;20190;-79
2023/06/15 05:02:49;;;;;;;3.53;1.58;;;23.10;80.50;;;;;;6242822;23;20212;-83
2023/06/15 05:05:20;;;;;;;6.05;1.25;;;23.10;80.30;;;;;;6242634;23;20170;-82
2023/06/15 05:07:48;;;;;;;2.10;1.50;;;23.20;80.20;;;;;;6242868;23;20416;-82
2023/06/15 05:10:16;;;;;;;2.05;1.17;;;23.20;80.00;;;;;;6242160;23;20171;-82
2023/06/15 05:12:46;;;;;;;6.90;1.23;;;23.30;79.90;;;;;;6217310;23;20167;-84
2023/06/15 05:15:15;;;;;;;2.53;1.75;;;23.30;79.60;;;;;;6216633;23;20170;-82
2023/06/15 05:17:43;;;;;;;1.38;0.73;;;23.40;79.40;;;;;;6243571;23;20707;-84
2023/06/15 05:20:13;;;;;;;2.10;1.13;;;23.40;79.20;;;;;;6243089;23;20166;-82
2023/06/15 05:22:44;;;;;;;2.25;1.15;;;23.50;79.20;;;;;;6217870;23;20202;-84
2023/06/15 05:25:12;;;;;;;1.80;1.40;;;23.60;79.10;;;;;;6241991;23;20535;-82
2023/06/15 05:27:42;;;;;;;1.35;1.23;;;23.60;79.00;;;;;;6243004;23;20198;-84
2023/06/15 05:30:11;;;;;;;1.45;0.88;;;23.70;79.00;;;;;;6217343;23;20170;-82
2023/06/15 05:32:40;;;;;;;1.17;1.00;;;23.80;78.90;;;;;;6243160;23;20173;-84
2023/06/15 05:35:10;;;;;;;1.92;0.57;;;23.80;78.80;;;;;;6243006;23;20170;-82
2023/06/15 05:37:39;;;;;;;1.45;1.27;;;23.90;78.60;;;;;;6243559;23;20169;-83
2023/06/15 05:40:09;;;;;;;0.80;0.75;;;24.00;78.30;;;;;;6243262;23;20176;-84
2023/06/15 05:42:38;;;;;;;1.42;1.20;;;24.10;78.40;;;;;;6243582;23;20186;-83
2023/06/15 05:45:07;;;;;;;1.73;1.30;;;24.10;78.10;;;;;;6243890;23;20170;-84
2023/06/15 05:47:36;;;;;;;2.30;1.00;;;24.20;78.00;;;;;;6242944;23;20616;-83
2023/06/15 05:50:05;;;;;;;1.50;0.98;;;24.30;77.70;;;;;;6241192;23;20166;-83
2023/06/15 05:52:34;;;;;;;4.78;1.17;;;24.40;77.50;;;;;;6244394;23;20170;-83
2023/06/15 05:55:02;;;;;;;1.23;0.68;;;24.50;77.30;;;;;;6245307;23;20167;-84
2023/06/15 05:57:32;;;;;;;0.93;0.93;;;24.60;77.20;;;;;;6244830;23;20181;-83
2023/06/15 06:00:02;;;;;;;1.08;0.95;;;24.60;76.40;;;;;;6245114;23;20166;-81
2023/06/15 06:02:30;;;;;;;2.22;1.02;;;24.70;76.30;;;;;;6244361;23;20194;-83
2023/06/15 06:04:59;;;;;;;2.15;1.05;;;24.90;76.20;;;;;;6245276;23;20193;-83
2023/06/15 06:07:27;;;;;;;2.10;1.23;;;24.90;75.80;;;;;;6242992;23;20257;-83
2023/06/15 06:09:55;;;;;;;0.98;0.73;;;25.00;74.70;;;;;;6245631;23;20690;-83
2023/06/15 06:12:24;;;;;;;0.55;0.55;;;25.10;74.70;;;;;;6244276;23;20171;-84
2023/06/15 06:14:53;;;;;;;0.90;0.75;;;25.20;74.80;;;;;;6244880;23;20181;-83
2023/06/15 06:17:22;;;;;;;1.00;0.77;;;25.30;74.90;;;;;;6244582;23;20230;-83
2023/06/15 06:20:11;;;;;;;0.88;0.80;;;25.40;74.60;;;;;;6243743;23;20181;-82
2023/06/15 06:22:40;;;;;;;1.90;1.33;;;25.50;74.40;;;;;;6244735;23;20194;-82
2023/06/15 06:25:08;;;;;;;0.70;0.70;;;25.60;73.80;;;;;;6244669;23;20197;-82
2023/06/15 06:27:37;;;;;;;2.10;1.25;;;25.60;73.80;;;;;;6245913;23;20196;-84
2023/06/15 06:30:08;;;;;;;1.70;0.98;;;25.70;73.70;;;;;;6244213;23;20166;-83
2023/06/15 06:32:36;;;;;;;0.95;0.65;;;25.80;73.70;;;;;;6244797;23;20713;-83
2023/06/15 06:35:05;;;;;;;1.40;0.98;;;25.90;73.80;;;;;;6243924;23;20209;-83
2023/06/15 06:37:34;;;;;;;0.60;0.60;;;25.90;73.40;;;;;;6244189;23;20668;-83
2023/06/15 06:40:03;;;;;;;4.50;1.50;;;26.10;73.10;;;;;;6245489;23;20616;-83
2023/06/15 06:42:31;;;;;;;0.95;0.70;;;26.10;72.50;;;;;;6244025;23;20190;-82
2023/06/15 06:45:00;;;;;;;1.08;0.70;;;26.20;72.50;;;;;;6244892;23;20167;-83
2023/06/15 06:47:30;;;;;;;1.63;1.17;;;26.20;71.80;;;;;;6244387;23;20608;-83
2023/06/15 06:49:59;;;;;;;0.98;0.77;;;26.20;70.80;;;;;;6246045;23;20208;-83
2023/06/15 06:52:28;;;;;;;0.45;0.45;;;26.30;70.80;;;;;;6244987;23;20202;-83
2023/06/15 06:54:56;;;;;;;0.85;0.73;;;26.40;70.50;;;;;;6244836;23;20197;-84
2023/06/15 06:57:24;;;;;;;4.38;1.42;;;26.40;70.00;;;;;;6243836;23;20642;-82
2023/06/15 06:59:56;;;;;;;1.17;0.90;;;26.50;70.10;;;;;;6244292;23;20162;-83
2023/06/15 07:02:24;;;;;;;1.35;1.15;;;26.50;70.20;;;;;;6243128;23;20225;-83
2023/06/15 07:04:54;;;;;;;2.40;1.40;;;26.60;70.20;;;;;;6244818;23;20170;-83
2023/06/15 07:07:23;;;;;;;1.42;0.82;;;26.70;70.30;;;;;;6242880;23;20174;-82
2023/06/15 07:09:52;;;;;;;1.85;1.10;;;26.80;69.90;;;;;;6244494;23;20167;-83
2023/06/15 07:12:20;;;;;;;3.40;1.80;;;26.80;69.90;;;;;;6243281;23;20173;-83
2023/06/15 07:14:49;;;;;;;0.75;0.75;;;26.90;68.60;;;;;;6244150;23;20166;-82
2023/06/15 07:17:17;;;;;;;1.15;0.80;;;27.00;68.40;;;;;;6244547;23;20178;-83
2023/06/15 07:19:46;;;;;;;1.23;0.88;;;27.00;67.30;;;;;;6244529;23;20166;-82
2023/06/15 07:22:17;;;;;;;1.02;0.65;;;27.10;67.50;;;;;;6243649;23;20280;-83
2023/06/15 07:24:46;;;;;;;1.00;0.93;;;27.20;67.50;;;;;;6243836;23;20199;-84
2023/06/15 07:27:14;;;;;;;2.67;1.35;;;27.30;67.50;;;;;;6244080;23;20478;-83
2023/06/15 07:29:43;;;;;;;1.13;0.60;;;27.30;67.20;;;;;;6244816;23;20166;-83
2023/06/15 07:32:13;;;;;;;0.50;0.50;;;27.40;67.30;;;;;;6216864;23;20170;-83
2023/06/15 07:34:42;;;;;;;0.35;0.35;;;27.50;67.20;;;;;;6218339;23;20173;-82
2023/06/15 07:37:11;;;;;;;0.40;0.40;;;27.50;67.00;;;;;;6242733;23;20170;-82
2023/06/15 07:39:41;;;;;;;2.10;0.93;;;27.60;67.10;;;;;;6243734;23;20194;-84
2023/06/15 07:42:10;;;;;;;1.40;0.73;;;27.70;66.20;;;;;;6243116;23;20189;-82
2023/06/15 07:44:38;;;;;;;1.17;0.40;;;27.80;66.30;;;;;;6243596;23;20522;-84
2023/06/15 07:47:08;;;;;;;0.47;0.47;;;27.80;66.10;;;;;;6242759;23;20162;-83
2023/06/15 07:49:37;;;;;;;0.50;0.47;;;27.90;64.90;;;;;;6243735;23;20605;-82
2023/06/15 07:52:14;;;;;;;0.57;0.57;;;28.00;63.90;;;;;;6242559;23;20169;-83
2023/06/15 07:54:44;;;;;;;0.43;0.40;;;28.10;64.10;;;;;;6245338;23;20198;-83
2023/06/15 07:57:12;;;;;;;0.30;0.30;;;28.10;64.40;;;;;;6243046;23;20182;-83
2023/06/15 07:59:41;;;;;;;0.80;0.60;;;28.20;63.20;;;;;;6244532;23;20488;-83
2023/06/15 08:02:10;;;;;;;2.75;1.80;;;28.20;62.50;;;;;;6242428;23;20530;-83
2023/06/15 08:04:38;;;;;;;1.17;0.65;;;28.20;62.50;;;;;;6244514;23;20178;-82
2023/06/15 08:07:08;;;;;;;1.58;0.85;;;28.20;62.30;;;;;;6242865;23;20171;-83
2023/06/15 08:09:36;;;;;;;0.63;0.52;;;28.20;62.30;;;;;;6243493;23;20712;-83
2023/06/15 08:12:07;;;;;;;1.58;0.88;;;28.30;62.10;;;;;;6243400;23;20265;-84
2023/06/15 08:14:37;;;;;;;1.88;0.70;;;28.40;62.00;;;;;;6243232;23;20159;-83
2023/06/15 08:17:06;;;;;;;0.70;0.70;;;28.40;62.30;;;;;;6242964;23;20170;-82
2023/06/15 08:19:36;;;;;;;1.20;0.55;;;28.40;61.60;;;;;;6244018;23;20621;-84
2023/06/15 08:22:05;;;;;;;0.85;0.82;;;28.50;61.60;;;;;;6242935;23;20201;-81
2023/06/15 08:24:34;;;;;;;0.73;0.65;;;28.60;61.50;;;;;;6244047;23;20521;-83
2023/06/15 08:27:05;;;;;;;0.80;0.50;;;28.70;61.30;;;;;;6243064;23;20170;-83
2023/06/15 08:29:35;;;;;;;1.30;0.63;;;28.70;61.20;;;;;;6244509;23;20171;-83
2023/06/15 08:32:08;;;;;;;0.40;0.40;;;28.80;60.60;;;;;;6243117;23;20490;-83
2023/06/15 08:34:37;;;;;;;1.13;0.60;;;28.90;59.60;;;;;;6243385;23;20161;-82
2023/06/15 08:37:06;;;;;;;0.52;0.52;;;28.90;59.00;;;;;;6242616;23;20170;-82
2023/06/15 08:39:34;;;;;;;0.40;0.40;;;29.00;59.60;;;;;;6217180;23;20177;-83
2023/06/15 08:42:04;;;;;;;0.38;0.38;;;29.10;59.40;;;;;;6243122;23;20169;-83
2023/06/15 08:44:34;;;;;;;0.30;0.30;;;29.10;58.90;;;;;;6244117;23;20228;-83
2023/06/15 08:47:03;;;;;;;0.85;0.52;;;29.10;58.90;;;;;;6217194;23;20177;-83
2023/06/15 08:49:32;;;;;;;5.47;1.20;;;29.10;57.80;;;;;;6217035;23;20249;-82
2023/06/15 08:52:01;;;;;;;0.35;0.35;;;29.20;58.20;;;;;;6243563;23;20166;-82
2023/06/15 08:54:32;;;;;;;0.93;0.63;;;29.30;58.40;;;;;;6243698;23;20550;-81
2023/06/15 08:57:01;;;;;;;0.43;0.35;;;29.40;58.20;;;;;;6241885;23;20516;-82
2023/06/15 08:59:30;;;;;;;1.17;0.80;;;29.40;58.20;;;;;;6243489;23;20181;-81
2023/06/15 09:02:06;;;;;;;0.95;0.85;;;29.50;57.40;;;;;;6242284;23;20170;-80
2023/06/15 09:04:34;;;;;;;0.80;0.80;;;29.50;57.30;;;;;;6215822;23;20541;-82
2023/06/15 09:07:05;;;;;;;1.08;0.60;;;29.60;57.00;;;;;;6244262;23;20166;-81
2023/06/15 09:09:33;;;;;;;0.25;0.25;;;29.70;56.90;;;;;;6243702;23;20167;-82
2023/06/15 09:12:02;;;;;;;0.43;0.43;;;29.70;56.00;;;;;;6243571;23;20170;-82
2023/06/15 09:14:39;;;;;;;0.55;0.55;;;29.80;55.60;;;;;;6217017;23;20178;-82
2023/06/15 09:17:19;;;;;;;4.38;1.40;;;29.80;55.50;;;;;;6243512;23;20182;-82
2023/06/15 09:19:49;;;;;;;2.63;1.05;;;29.80;54.80;;;;;;6243603;23;20161;-82
2023/06/15 09:22:17;;;;;;;0.57;0.57;;;29.90;54.70;;;;;;6242695;23;20166;-82
2023/06/15 09:24:46;;;;;;;0.55;0.55;;;30.00;55.20;;;;;;6242932;23;20257;-82
2023/06/15 09:27:18;;;;;;;0.75;0.68;;;30.10;55.40;;;;;;6242744;23;20167;-82
2023/06/15 09:30:03;;;;;;;0.22;0.22;;;30.20;55.20;;;;;;6245515;23;20166;-82
2023/06/15 09:32:33;;;;;;;0.75;0.68;;;30.20;55.40;;;;;;6245844;23;20178;-83
2023/06/15 09:35:03;;;;;;;0.63;0.52;;;30.20;55.20;;;;;;6245680;23;20241;-82
2023/06/15 09:37:33;;;;;;;0.77;0.55;;;30.30;55.30;;;;;;6245163;23;20167;-83
2023/06/15 09:40:05;;;;;;;8.30;0.50;;;30.40;54.70;;;;;;6245766;23;20539;-82
2023/06/15 09:42:35;;;;;;;0.40;0.40;;;30.40;54.90;;;;;;6245697;23;20158;-82
2023/06/15 09:45:05;;;;;;;1.95;0.50;;;30.50;55.10;;;;;;6218158;23;20159;-82
2023/06/15 09:47:35;;;;;;;0.50;0.50;;;30.40;54.20;;;;;;6219013;23;20600;-82
2023/06/15 09:50:09;;;;;;;0.70;0.32;;;30.40;54.70;;;;;;6245182;23;20220;-82
2023/06/15 09:52:43;;;;;;;0.55;0.35;;;30.40;54.70;;;;;;6246042;23;20161;-82
2023/06/15 09:55:13;;;;;;;0.40;0.40;;;30.50;54.70;;;;;;6244517;23;20158;-82
2023/06/15 09:57:42;;;;;;;0.50;0.50;;;30.50;54.60;;;;;;6245252;23;20182;-83
2023/06/15 10:00:12;;;;;;;0.68;0.43;;;30.40;54.40;;;;;;6245444;23;20170;-80
2023/06/15 10:02:44;;;;;;;1.13;0.75;;;30.40;54.30;;;;;;6245861;23;20220;-81
2023/06/15 10:05:15;;;;;;;1.73;1.23;;;30.40;54.10;;;;;;6244948;23;20159;-82
2023/06/15 10:07:49;;;;;;;1.77;0.63;;;30.50;54.30;;;;;;6245315;23;20150;-82
2023/06/15 10:10:20;;;;;;;0.47;0.45;;;30.60;54.10;;;;;;6243524;23;20505;-81
2023/06/15 10:12:55;;;;;;;0.68;0.52;;;30.70;54.20;;;;;;6245965;23;20770;-83
2023/06/15 10:15:26;;;;;;;0.95;0.80;;;30.70;54.20;;;;;;6243012;23;20169;-82
2023/06/15 10:17:57;;;;;;;0.30;0.30;;;30.80;53.90;;;;;;6245677;23;20163;-83
2023/06/15 10:20:27;;;;;;;3.53;0.98;;;30.80;54.20;;;;;;6243187;23;20205;-81
2023/06/15 10:23:02;;;;;;;0.30;0.30;;;30.90;53.90;;;;;;6246022;23;20175;-82
2023/06/15 10:25:31;;;;;;;1.30;0.82;;;31.00;53.60;;;;;;6244550;23;20193;-81
2023/06/15 10:28:02;;;;;;;2.60;0.63;;;31.00;53.00;;;;;;6244799;23;20166;-81
2023/06/15 10:30:38;;;;;;;0.47;0.47;;;30.90;53.00;;;;;;6244945;23;20169;-83
2023/06/15 10:33:18;;;;;;;1.65;0.80;;;31.00;53.40;;;;;;6244543;23;20164;-83
2023/06/15 10:35:55;;;;;;;0.50;0.50;;;31.00;53.20;;;;;;6217813;23;20209;-82
2023/06/15 10:38:32;;;;;;;0.50;0.50;;;31.00;53.10;;;;;;6244247;23;20174;-81
2023/06/15 10:41:05;;;;;;;1.15;1.00;;;31.00;53.30;;;;;;6243342;23;20615;-82
2023/06/15 10:43:34;;;;;;;0.60;0.45;;;30.90;52.90;;;;;;6245185;23;20552;-81
2023/06/15 10:46:03;;;;;;;0.90;0.50;;;30.90;52.80;;;;;;6244780;23;20616;-82
2023/06/15 10:48:39;;;;;;;0.85;0.50;;;31.10;52.90;;;;;;6245443;23;20178;-81
2023/06/15 10:51:09;;;;;;;0.82;0.60;;;31.10;52.90;;;;;;6245004;23;20158;-82
2023/06/15 10:53:40;;;;;;;1.45;1.10;;;31.10;53.00;;;;;;6243989;23;20182;-81
2023/06/15 10:56:15;;;;;;;0.68;0.68;;;31.10;53.10;;;;;;6244370;23;20238;-83
2023/06/15 10:58:54;;;;;;;0.52;0.52;;;31.20;53.40;;;;;;6244517;23;20675;-83
2023/06/15 11:01:23;;;;;;;0.28;0.28;;;31.20;53.40;;;;;;6243847;23;20162;-82
2023/06/15 11:03:57;;;;;;;1.13;0.60;;;31.20;53.70;;;;;;6244009;23;20190;-82
2023/06/15 11:06:32;;;;;;;0.90;0.40;;;31.20;53.20;;;;;;6244178;23;20163;-82
2023/06/15 11:09:06;;;;;;;1.05;0.52;;;31.20;53.40;;;;;;6245957;23;20154;-82
2023/06/15 11:11:37;;;;;;;0.85;0.70;;;31.10;52.70;;;;;;6245433;23;20200;-82
2023/06/15 11:14:07;;;;;;;0.90;0.40;;;31.10;53.00;;;;;;6242172;23;20382;-83
2023/06/15 11:16:39;;;;;;;0.88;0.40;;;31.20;53.00;;;;;;6245123;23;20201;-83
2023/06/15 11:19:40;;;;;;;1.08;0.40;;;31.10;53.10;;;;;;6244256;23;20167;-82
2023/06/15 11:22:11;;;;;;;0.70;0.70;;;31.10;53.20;;;;;;6243581;23;20190;-82
2023/06/15 11:24:41;;;;;;;0.60;0.55;;;31.00;51.50;;;;;;6242969;23;20198;-82
2023/06/15 11:27:12;;;;;;;0.52;0.50;;;31.00;52.00;;;;;;6241673;23;20208;-82
2023/06/15 11:29:42;;;;;;;0.30;0.30;;;31.10;52.40;;;;;;6244772;23;20189;-82
2023/06/15 11:32:11;;;;;;;0.65;0.57;;;31.10;52.50;;;;;;6217558;23;20163;-82
2023/06/15 11:34:41;;;;;;;0.57;0.43;;;31.20;52.80;;;;;;6244172;23;20497;-82
2023/06/15 11:37:12;;;;;;;0.50;0.50;;;31.30;52.80;;;;;;6242678;23;20699;-82
2023/06/15 11:39:44;;;;;;;0.40;0.32;;;31.30;52.90;;;;;;6217628;23;20533;-82
2023/06/15 11:42:14;;;;;;;1.83;0.60;;;31.30;52.90;;;;;;6243806;23;20162;-82
2023/06/15 11:44:42;;;;;;;0.52;0.50;;;31.30;52.60;;;;;;6244483;23;20198;-82
2023/06/15 11:47:11;;;;;;;0.50;0.50;;;31.30;52.30;;;;;;6243193;23;20171;-82
2023/06/15 11:49:42;;;;;;;0.57;0.30;;;31.20;52.40;;;;;;6243716;23;20162;-82
2023/06/15 11:52:11;;;;;;;0.57;0.52;;;31.30;52.70;;;;;;6243566;23;20178;-81
2023/06/15 11:54:39;;;;;;;0.30;0.30;;;31.30;52.70;;;;;;6245099;23;20281;-82
2023/06/15 11:57:21;;;;;;;1.85;0.60;;;31.30;52.50;;;;;;6243500;23;20155;-82
2023/06/15 11:59:50;;;;;;;0.68;0.60;;;31.30;52.50;;;;;;6244330;23;20182;-82
2023/06/15 12:02:20;;;;;;;0.60;0.50;;;31.30;52.60;;;;;;6242142;23;20545;-82
2023/06/15 12:04:57;;;;;;;0.30;0.30;;;31.40;52.70;;;;;;6244515;23;20670;-83
2023/06/15 12:07:26;;;;;;;0.80;0.65;;;31.40;52.60;;;;;;6243071;23;20154;-81
2023/06/15 12:10:06;;;;;;;0.75;0.60;;;31.50;52.30;;;;;;6244523;23;20194;-82
2023/06/15 12:12:36;;;;;;;1.95;0.82;;;31.60;52.40;;;;;;6243596;23;20170;-81
2023/06/15 12:15:07;;;;;;;0.40;0.40;;;31.70;52.10;;;;;;6216080;23;20171;-82
2023/06/15 12:17:37;;;;;;;1.05;0.52;;;31.90;52.60;;;;;;6244026;23;20174;-82
2023/06/15 12:20:09;;;;;;;0.45;0.45;;;31.90;52.10;;;;;;6244439;23;20237;-82
2023/06/15 12:22:44;;;;;;;1.30;0.95;;;32.00;52.20;;;;;;6243500;23;20650;-81
2023/06/15 12:25:13;;;;;;;1.25;0.70;;;32.10;52.10;;;;;;6215307;23;20195;-81
2023/06/15 12:27:43;;;;;;;0.75;0.60;;;32.20;51.50;;;;;;6244020;23;20166;-82
2023/06/15 12:30:13;;;;;;;0.57;0.55;;;32.20;51.30;;;;;;6244021;23;20186;-80
2023/06/15 12:32:45;;;;;;;0.47;0.43;;;32.10;51.10;;;;;;6244303;23;20542;-81
2023/06/15 12:35:37;;;;;;;1.48;0.52;;;32.10;51.10;;;;;;6240821;23;20205;-80
2023/06/15 12:38:07;;;;;;;0.98;0.55;;;32.00;50.70;;;;;;6243690;23;20234;-82
2023/06/15 12:40:39;;;;;;;1.10;0.82;;;32.10;51.00;;;;;;6242394;23;20170;-81
2023/06/15 12:43:08;;;;;;;0.60;0.60;;;32.10;51.10;;;;;;6243313;23;20159;-82
2023/06/15 12:45:37;;;;;;;0.68;0.60;;;32.10;51.00;;;;;;6243157;23;20202;-82
2023/06/15 12:48:06;;;;;;;0.28;0.28;;;32.10;50.90;;;;;;6244325;23;20177;-82
2023/06/15 12:50:36;;;;;;;0.57;0.50;;;32.10;51.20;;;;;;6242678;23;20249;-81
2023/06/15 12:53:06;;;;;;;0.43;0.40;;;32.10;51.00;;;;;;6243308;23;20249;-80
2023/06/15 12:55:34;;;;;;;0.70;0.68;;;32.20;50.80;;;;;;6242629;23;20175;-82
2023/06/15 12:58:03;;;;;;;1.50;0.63;;;32.30;51.10;;;;;;6245045;23;20162;-82
2023/06/15 13:00:32;;;;;;;1.00;0.60;;;32.40;50.10;;;;;;6242892;23;20681;-80
2023/06/15 13:03:00;;;;;;;0.43;0.40;;;32.50;49.90;;;;;;6243992;23;20171;-81